Time;durP1;ratioP1;P1;durP2;ratioP2;P2;SDS_P1;SDS_P2;PMS_P1;PMS_P2;Temp;Humidity;BMP_temperature;BMP_pressure;BME280_temperature;BME280_humidity;BME280_pressure;Samples;Min_cycle;Max_cycle;Signal;HPM_P1;HPM_P2
2021/10/19 00:00:19;;;;;;;4.80;2.90;;;;;;;3.43;86.05;98704.06;6249735;28;20193;-73
2021/10/19 00:03:21;;;;;;;5.07;2.90;;;;;;;3.42;86.02;98688.47;6249434;28;20192;-73
2021/10/19 00:06:24;;;;;;;3.77;2.60;;;;;;;3.36;85.72;98699.97;6249367;28;20194;-72
2021/10/19 00:09:25;;;;;;;3.60;3.03;;;;;;;3.34;86.09;98699.19;6249323;28;20193;-73
2021/10/19 00:12:27;;;;;;;3.73;3.10;;;;;;;3.32;85.65;98703.59;6249466;28;20211;-73
2021/10/19 00:15:30;;;;;;;3.30;2.73;;;;;;;3.30;86.00;98698.44;6231516;28;20225;-73
2021/10/19 00:18:32;;;;;;;3.87;3.40;;;;;;;3.27;85.80;98702.91;6248958;28;20206;-73
2021/10/19 00:21:34;;;;;;;4.73;3.30;;;;;;;3.23;86.00;98706.53;6249667;28;20205;-73
2021/10/19 00:24:36;;;;;;;3.83;3.43;;;;;;;3.17;86.26;98706.75;6231313;28;20226;-73
2021/10/19 00:27:38;;;;;;;4.57;2.80;;;;;;;3.17;85.95;98722.41;6247826;28;20771;-73
2021/10/19 00:30:40;;;;;;;4.67;3.20;;;;;;;3.16;85.92;98715.47;6248739;28;20314;-73
2021/10/19 00:33:44;;;;;;;3.10;2.80;;;;;;;3.14;85.70;98714.66;6247448;28;20186;-73
2021/10/19 00:36:47;;;;;;;3.10;2.80;;;;;;;3.13;86.08;98715.56;6248899;28;20579;-72
2021/10/19 00:39:49;;;;;;;4.93;3.40;;;;;;;3.12;85.98;98706.88;6248188;28;20744;-73
2021/10/19 00:42:51;;;;;;;3.23;2.87;;;;;;;3.10;85.52;98707.84;6230940;28;20231;-73
2021/10/19 00:45:55;;;;;;;5.33;3.63;;;;;;;3.08;85.74;98705.31;6230859;28;20190;-73
2021/10/19 00:48:57;;;;;;;4.27;3.47;;;;;;;3.07;86.08;98702.75;6248624;28;20201;-73
2021/10/19 00:51:59;;;;;;;5.23;2.97;;;;;;;3.06;85.74;98706.25;6230616;28;20281;-73
2021/10/19 00:55:03;;;;;;;5.00;3.80;;;;;;;3.07;85.93;98700.13;6248312;28;20209;-72
2021/10/19 00:58:06;;;;;;;3.60;2.93;;;;;;;3.10;86.20;98700.88;6246937;28;20720;-73
2021/10/19 01:01:09;;;;;;;5.97;3.07;;;;;;;3.13;85.68;98698.16;6238648;28;20611;-73
2021/10/19 01:04:12;;;;;;;3.87;3.20;;;;;;;3.15;85.74;98693.75;6247035;28;20212;-73
2021/10/19 01:07:15;;;;;;;5.27;3.60;;;;;;;3.17;85.82;98688.50;6248061;28;20197;-73
2021/10/19 01:10:17;;;;;;;4.73;2.97;;;;;;;3.18;85.72;98690.19;6248143;28;20198;-73
2021/10/19 01:13:20;;;;;;;3.87;3.40;;;;;;;3.19;85.98;98679.72;6246661;28;20238;-72
2021/10/19 01:16:22;;;;;;;6.03;3.80;;;;;;;3.25;86.19;98676.88;6247819;28;20208;-72
2021/10/19 01:19:25;;;;;;;5.27;4.30;;;;;;;3.27;85.93;98675.06;6248068;28;20286;-73
2021/10/19 01:22:27;;;;;;;4.63;3.47;;;;;;;3.32;85.90;98664.47;6230055;28;20576;-73
2021/10/19 01:25:31;;;;;;;3.80;3.07;;;;;;;3.37;85.99;98661.72;6246559;28;20193;-73
2021/10/19 01:28:35;;;;;;;4.70;3.50;;;;;;;3.36;85.99;98665.22;6230000;28;20250;-73
2021/10/19 01:31:37;;;;;;;5.10;3.67;;;;;;;3.38;86.33;98669.47;6237819;28;20226;-73
2021/10/19 01:34:39;;;;;;;4.80;3.50;;;;;;;3.40;86.51;98666.78;6242829;28;20488;-73
2021/10/19 01:37:42;;;;;;;4.40;3.90;;;;;;;3.40;86.36;98661.56;6247376;28;20226;-73
2021/10/19 01:40:46;;;;;;;3.53;2.57;;;;;;;3.40;86.48;98658.97;6247500;28;20631;-73
2021/10/19 01:43:49;;;;;;;4.70;3.60;;;;;;;3.39;86.52;98654.69;6229290;28;20205;-73
2021/10/19 01:46:51;;;;;;;5.70;3.73;;;;;;;3.37;86.76;98657.34;6245768;28;20186;-73
2021/10/19 01:49:53;;;;;;;5.03;3.47;;;;;;;3.33;86.79;98661.81;6244989;28;20847;-73
2021/10/19 01:52:55;;;;;;;5.53;3.80;;;;;;;3.31;86.30;98660.16;6245860;28;20188;-73
2021/10/19 01:55:57;;;;;;;4.17;3.77;;;;;;;3.30;86.54;98655.84;6229194;28;20217;-73
2021/10/19 01:58:59;;;;;;;4.50;3.63;;;;;;;3.27;86.54;98645.53;6229328;28;20665;-73
2021/10/19 02:02:01;;;;;;;3.73;3.40;;;;;;;3.20;86.28;98650.09;6246737;28;20564;-73
2021/10/19 02:05:04;;;;;;;5.13;3.20;;;;;;;3.16;86.38;98640.69;6246725;28;20196;-73
2021/10/19 02:08:05;;;;;;;6.70;3.80;;;;;;;3.13;86.38;98634.72;6246741;28;20610;-73
2021/10/19 02:11:07;;;;;;;3.57;3.23;;;;;;;3.10;86.07;98627.00;6245316;28;20198;-73
2021/10/19 02:14:09;;;;;;;4.40;3.30;;;;;;;3.08;86.41;98634.91;6246502;28;20657;-73
2021/10/19 02:17:11;;;;;;;5.43;3.37;;;;;;;3.07;86.86;98627.13;6246558;28;20211;-73
2021/10/19 02:20:13;;;;;;;4.47;3.90;;;;;;;3.04;86.03;98632.44;6246718;28;20680;-73
2021/10/19 02:23:15;;;;;;;5.00;4.27;;;;;;;3.05;86.51;98636.75;6220445;28;20202;-73
2021/10/19 02:26:18;;;;;;;6.13;4.23;;;;;;;3.03;86.27;98635.94;6220872;28;20204;-72
2021/10/19 02:29:20;;;;;;;6.60;4.70;;;;;;;3.06;86.76;98631.47;6227794;28;20766;-73
2021/10/19 02:32:22;;;;;;;5.63;3.87;;;;;;;3.09;86.95;98640.97;6246005;28;20201;-73
2021/10/19 02:35:24;;;;;;;8.10;4.30;;;;;;;3.10;86.62;98643.50;6246026;28;20219;-73
2021/10/19 02:38:26;;;;;;;6.30;4.20;;;;;;;3.12;86.88;98638.22;6244754;28;20281;-73
2021/10/19 02:41:28;;;;;;;9.83;4.27;;;;;;;3.15;86.59;98640.75;6228322;28;20205;-73
2021/10/19 02:44:30;;;;;;;5.10;4.33;;;;;;;3.16;86.75;98637.22;6228237;28;20204;-72
2021/10/19 02:47:32;;;;;;;5.10;3.70;;;;;;;3.18;86.53;98628.44;6228367;28;20200;-73
2021/10/19 02:50:34;;;;;;;5.30;3.50;;;;;;;3.18;86.89;98625.00;6228364;28;20288;-73
2021/10/19 02:53:36;;;;;;;6.20;4.00;;;;;;;3.22;86.65;98616.13;6228347;28;20711;-73
2021/10/19 02:56:39;;;;;;;4.77;3.80;;;;;;;3.23;86.67;98612.63;6228419;28;20304;-73
2021/10/19 02:59:41;;;;;;;5.60;4.10;;;;;;;3.22;86.62;98616.13;6211723;28;20199;-73
2021/10/19 03:02:43;;;;;;;4.80;3.73;;;;;;;3.21;86.47;98606.59;6228246;28;20282;-73
2021/10/19 03:05:45;;;;;;;4.77;4.13;;;;;;;3.19;86.62;98608.44;6244509;28;20668;-73
2021/10/19 03:08:47;;;;;;;4.20;3.80;;;;;;;3.17;87.03;98607.63;6245401;28;20745;-73
2021/10/19 03:11:49;;;;;;;5.50;4.90;;;;;;;3.16;87.14;98600.72;6245676;28;20240;-73
2021/10/19 03:14:51;;;;;;;4.20;3.80;;;;;;;3.14;87.31;98594.69;6227709;28;20203;-73
2021/10/19 03:17:53;;;;;;;5.17;3.93;;;;;;;3.11;87.18;98605.22;6227678;28;20216;-73
2021/10/19 03:20:55;;;;;;;4.90;3.40;;;;;;;3.09;86.85;98599.25;6245397;28;20208;-73
2021/10/19 03:23:57;;;;;;;5.73;4.17;;;;;;;3.08;87.21;98600.16;6245521;28;20222;-73
2021/10/19 03:26:59;;;;;;;6.83;3.60;;;;;;;3.03;86.92;98610.72;6227629;28;20208;-73
2021/10/19 03:30:01;;;;;;;4.27;3.87;;;;;;;3.01;86.79;98609.06;6245083;28;20300;-73
2021/10/19 03:33:03;;;;;;;4.23;3.83;;;;;;;2.96;87.03;98611.84;6245305;28;20229;-73
2021/10/19 03:36:06;;;;;;;6.73;4.47;;;;;;;2.94;87.15;98598.88;6227649;28;20220;-73
2021/10/19 03:39:08;;;;;;;7.43;4.93;;;;;;;2.94;86.98;98608.44;6220418;28;20205;-73
2021/10/19 03:42:10;;;;;;;5.77;4.23;;;;;;;2.91;86.96;98608.53;6241355;28;20271;-73
2021/10/19 03:45:12;;;;;;;6.00;4.73;;;;;;;2.90;87.14;98610.28;6243892;28;20198;-73
2021/10/19 03:48:14;;;;;;;6.80;4.00;;;;;;;2.89;87.01;98611.22;6245302;28;20235;-72
2021/10/19 03:51:16;;;;;;;6.50;4.73;;;;;;;2.89;87.22;98620.78;6243800;28;20284;-72
2021/10/19 03:54:19;;;;;;;4.37;3.97;;;;;;;2.91;87.16;98609.38;6245340;28;20196;-73
2021/10/19 03:57:21;;;;;;;5.13;4.17;;;;;;;2.92;87.36;98610.25;6228366;28;20205;-73
2021/10/19 04:00:23;;;;;;;5.30;4.50;;;;;;;2.90;87.12;98607.69;6219378;28;20208;-73
2021/10/19 04:03:25;;;;;;;4.10;3.70;;;;;;;2.89;87.06;98611.22;6202994;28;20680;-73
2021/10/19 04:06:28;;;;;;;6.47;4.00;;;;;;;2.89;87.24;98607.75;6241534;28;20227;-73
2021/10/19 04:09:30;;;;;;;4.70;3.67;;;;;;;2.86;87.08;98608.72;6227178;28;20205;-73
2021/10/19 04:12:32;;;;;;;3.97;3.50;;;;;;;2.85;87.29;98608.75;6244919;28;20279;-73
2021/10/19 04:15:34;;;;;;;4.93;3.60;;;;;;;2.83;86.99;98613.16;6248750;28;20257;-73
2021/10/19 04:18:36;;;;;;;4.80;3.77;;;;;;;2.81;87.13;98617.56;6247814;28;20767;-73
2021/10/19 04:21:41;;;;;;;5.20;4.30;;;;;;;2.77;86.92;98618.59;6231498;28;20188;-73
2021/10/19 04:24:43;;;;;;;6.03;3.70;;;;;;;2.73;86.95;98611.78;6248171;28;20685;-73
2021/10/19 04:27:45;;;;;;;4.37;3.53;;;;;;;2.65;86.68;98622.47;6249187;28;20204;-73
2021/10/19 04:30:47;;;;;;;6.23;4.20;;;;;;;2.58;86.56;98629.66;6248729;28;20264;-73
2021/10/19 04:33:49;;;;;;;5.13;4.10;;;;;;;2.53;86.96;98633.28;6248982;28;20189;-72
2021/10/19 04:36:51;;;;;;;9.57;5.00;;;;;;;2.47;86.65;98626.53;6252276;28;20572;-73
2021/10/19 04:39:53;;;;;;;6.93;4.17;;;;;;;2.42;86.49;98628.44;6248897;28;20279;-72
2021/10/19 04:42:55;;;;;;;5.77;4.10;;;;;;;2.40;86.48;98630.22;6247290;28;20192;-73
2021/10/19 04:45:57;;;;;;;4.73;4.10;;;;;;;2.38;86.87;98628.59;6230658;28;20284;-73
2021/10/19 04:49:01;;;;;;;5.30;4.20;;;;;;;2.36;86.76;98626.03;6230813;28;20295;-72
2021/10/19 04:52:05;;;;;;;6.73;4.93;;;;;;;2.35;86.52;98626.06;6248293;28;20192;-72
2021/10/19 04:55:08;;;;;;;5.87;4.20;;;;;;;2.33;86.74;98627.88;6248433;28;20193;-73
2021/10/19 04:58:09;;;;;;;4.50;3.50;;;;;;;2.28;86.70;98630.66;6230378;28;20691;-73
2021/10/19 05:01:11;;;;;;;5.17;4.13;;;;;;;2.24;86.39;98639.44;6248198;28;20193;-73
2021/10/19 05:04:15;;;;;;;6.50;4.87;;;;;;;2.22;86.65;98633.44;6248318;28;20198;-73
2021/10/19 05:07:17;;;;;;;4.80;3.80;;;;;;;2.17;86.59;98633.59;6248497;28;20216;-73
2021/10/19 05:10:19;;;;;;;5.23;4.30;;;;;;;2.14;86.51;98625.00;6248015;28;20276;-73
2021/10/19 05:13:21;;;;;;;6.13;3.53;;;;;;;2.10;86.48;98621.63;6230053;28;20207;-72
2021/10/19 05:16:24;;;;;;;5.37;4.60;;;;;;;2.09;86.42;98624.31;6248155;28;20209;-73
2021/10/19 05:19:26;;;;;;;5.73;4.93;;;;;;;2.04;86.46;98634.00;6247716;28;20195;-73
2021/10/19 05:22:28;;;;;;;5.77;4.17;;;;;;;2.00;86.40;98627.16;6230224;28;20208;-72
2021/10/19 05:25:30;;;;;;;5.93;4.53;;;;;;;1.97;86.18;98635.94;6245519;28;20713;-73
2021/10/19 05:28:32;;;;;;;6.07;4.80;;;;;;;1.97;86.23;98642.91;6229299;28;20215;-73
2021/10/19 05:31:34;;;;;;;5.47;4.37;;;;;;;1.98;86.45;98635.06;6247487;28;20235;-72
2021/10/19 05:34:37;;;;;;;5.70;5.07;;;;;;;2.03;86.49;98633.16;6229596;28;20192;-73
2021/10/19 05:37:38;;;;;;;5.13;3.77;;;;;;;2.11;86.17;98630.31;6256458;28;20694;-73
2021/10/19 05:40:42;;;;;;;6.23;4.80;;;;;;;2.17;85.99;98627.53;6247407;28;20188;-73
2021/10/19 05:43:45;;;;;;;5.33;4.20;;;;;;;2.25;86.01;98627.28;6246711;28;20242;-73
2021/10/19 05:46:47;;;;;;;4.93;4.20;;;;;;;2.30;85.94;98628.81;6247199;28;20233;-73
2021/10/19 05:49:49;;;;;;;6.27;5.07;;;;;;;2.35;85.96;98634.75;6246897;28;20196;-73
2021/10/19 05:52:51;;;;;;;6.23;4.43;;;;;;;2.43;85.86;98632.75;6245663;28;20246;-73
2021/10/19 05:55:53;;;;;;;5.50;4.67;;;;;;;2.52;85.67;98635.03;6246612;28;20668;-73
2021/10/19 05:58:55;;;;;;;6.80;4.50;;;;;;;2.59;85.61;98639.16;6246419;28;20321;-72
2021/10/19 06:01:59;;;;;;;5.27;4.53;;;;;;;2.70;85.39;98641.41;6237342;28;20323;-73
2021/10/19 06:05:01;;;;;;;5.17;4.23;;;;;;;2.73;85.57;98646.50;6228171;28;20680;-73
2021/10/19 06:08:04;;;;;;;9.33;4.50;;;;;;;2.81;85.37;98646.25;6246545;28;20176;-73
2021/10/19 06:11:06;;;;;;;7.90;5.50;;;;;;;2.93;84.84;98649.31;6246371;28;20188;-73
2021/10/19 06:14:08;;;;;;;5.53;4.73;;;;;;;3.08;85.22;98645.31;6246419;28;20542;-73
2021/10/19 06:17:13;;;;;;;6.30;5.13;;;;;;;3.20;84.97;98652.69;6246207;28;20212;-73
2021/10/19 06:20:15;;;;;;;7.03;4.87;;;;;;;3.31;84.83;98653.19;6246656;28;20598;-73
2021/10/19 06:23:18;;;;;;;5.77;4.63;;;;;;;3.40;85.00;98662.44;6220458;28;20555;-73
2021/10/19 06:26:21;;;;;;;5.20;4.37;;;;;;;3.44;85.10;98653.59;6233673;28;20273;-73
2021/10/19 06:29:23;;;;;;;4.73;4.07;;;;;;;3.48;84.86;98652.59;6245619;28;20248;-73
2021/10/19 06:32:25;;;;;;;5.10;4.10;;;;;;;3.53;84.91;98661.09;6245996;28;20201;-72
2021/10/19 06:35:27;;;;;;;4.50;4.00;;;;;;;3.60;84.32;98654.72;6244449;28;20193;-73
2021/10/19 06:38:29;;;;;;;5.00;4.50;;;;;;;3.71;85.01;98657.78;6245576;28;20249;-73
2021/10/19 06:41:31;;;;;;;6.57;5.13;;;;;;;3.81;84.55;98654.84;6245692;28;20578;-73
2021/10/19 06:44:33;;;;;;;5.47;4.67;;;;;;;3.89;84.29;98651.06;6245777;28;20190;-72
2021/10/19 06:47:47;;;;;;;5.10;4.50;;;;;;;4.01;84.73;98661.00;6244488;28;20212;-73
2021/10/19 06:50:49;;;;;;;6.87;4.50;;;;;;;4.16;84.54;98654.34;6227819;28;20220;-73
2021/10/19 06:53:51;;;;;;;7.77;5.23;;;;;;;4.30;84.62;98669.47;6227778;28;20579;-73
2021/10/19 06:56:53;;;;;;;6.40;4.10;;;;;;;4.43;84.49;98671.56;6245482;28;20206;-73
2021/10/19 06:59:55;;;;;;;5.03;4.47;;;;;;;4.59;84.54;98665.72;6231585;28;20194;-73
2021/10/19 07:02:57;;;;;;;6.07;4.20;;;;;;;4.71;84.18;98659.97;6227940;28;20206;-73
2021/10/19 07:06:05;;;;;;;5.60;4.30;;;;;;;4.88;83.59;98670.63;6227514;28;20610;-72
2021/10/19 07:09:08;;;;;;;4.53;4.10;;;;;;;5.02;84.44;98659.56;6245423;28;20252;-73
2021/10/19 07:12:10;;;;;;;5.47;4.20;;;;;;;5.18;84.40;98656.25;6243899;28;20631;-73
2021/10/19 07:15:12;;;;;;;4.23;3.67;;;;;;;5.40;83.18;98655.28;6245350;28;20266;-73
2021/10/19 07:18:14;;;;;;;4.23;3.70;;;;;;;5.60;83.18;98662.25;6227586;28;20218;-73
2021/10/19 07:21:16;;;;;;;5.70;3.70;;;;;;;5.78;83.48;98657.06;6244958;28;20540;-73
2021/10/19 07:24:18;;;;;;;4.00;3.60;;;;;;;5.96;82.93;98660.66;6245353;28;20195;-73
2021/10/19 07:27:20;;;;;;;3.80;3.50;;;;;;;6.16;82.63;98664.97;6245106;28;20687;-73
2021/10/19 07:30:23;;;;;;;4.43;3.90;;;;;;;6.32;82.23;98665.94;6219814;28;20236;-73
2021/10/19 07:33:26;;;;;;;4.53;3.40;;;;;;;6.45;82.48;98660.97;6202914;28;20207;-73
2021/10/19 07:36:29;;;;;;;3.83;3.23;;;;;;;6.57;82.06;98658.59;6242730;28;20296;-73
2021/10/19 07:39:31;;;;;;;5.33;3.60;;;;;;;6.68;81.52;98649.38;6225395;28;20736;-73
2021/10/19 07:42:35;;;;;;;3.93;3.43;;;;;;;6.79;81.74;98647.88;6235408;28;20695;-73
2021/10/19 07:45:39;;;;;;;4.37;3.60;;;;;;;6.90;80.98;98650.81;6227026;28;20681;-73
2021/10/19 07:48:41;;;;;;;4.90;3.63;;;;;;;7.04;81.30;98650.16;6246285;28;20562;-73
2021/10/19 07:51:43;;;;;;;4.00;3.60;;;;;;;7.21;80.62;98647.50;6249700;28;20267;-73
2021/10/19 07:54:45;;;;;;;3.93;3.60;;;;;;;7.35;80.73;98644.19;6248189;28;20202;-73
2021/10/19 07:57:49;;;;;;;3.77;3.33;;;;;;;7.52;80.59;98635.41;6231933;28;20219;-73
2021/10/19 08:00:51;;;;;;;4.17;3.70;;;;;;;7.63;80.20;98639.16;6244610;28;20663;-73
2021/10/19 08:03:53;;;;;;;5.13;4.10;;;;;;;7.73;79.79;98645.63;6209631;28;20196;-73
2021/10/19 08:06:55;;;;;;;4.43;3.63;;;;;;;7.84;80.21;98647.69;6231596;28;20262;-73
2021/10/19 08:09:57;;;;;;;5.30;3.60;;;;;;;7.92;79.42;98642.00;6237525;28;20199;-73
2021/10/19 08:12:59;;;;;;;4.47;3.77;;;;;;;8.01;79.40;98655.50;6247879;28;20552;-73
2021/10/19 08:16:02;;;;;;;3.67;3.23;;;;;;;8.14;79.15;98658.31;6248155;28;20188;-73
2021/10/19 08:19:05;;;;;;;4.30;3.53;;;;;;;8.30;79.06;98653.91;6248738;28;20215;-73
2021/10/19 08:22:08;;;;;;;4.67;4.13;;;;;;;8.51;78.21;98650.09;6248976;28;20194;-73
2021/10/19 08:25:10;;;;;;;4.40;3.47;;;;;;;8.79;77.61;98645.91;6248769;28;20194;-73
2021/10/19 08:28:23;;;;;;;5.00;3.33;;;;;;;9.09;76.32;98646.75;6247693;28;20602;-73
2021/10/19 08:31:26;;;;;;;3.77;3.27;;;;;;;9.30;75.71;98652.53;6201130;28;20245;-73
2021/10/19 08:34:28;;;;;;;3.70;3.10;;;;;;;9.46;75.07;98658.59;6199958;28;20194;-73
2021/10/19 08:37:30;;;;;;;3.57;3.23;;;;;;;9.61;75.55;98659.44;6199056;28;20551;-73
2021/10/19 08:40:32;;;;;;;3.87;3.10;;;;;;;9.76;74.55;98665.59;6199632;28;20224;-73
2021/10/19 08:43:34;;;;;;;4.30;3.03;;;;;;;9.96;73.86;98665.19;6198263;28;20279;-73
2021/10/19 08:46:36;;;;;;;5.23;2.77;;;;;;;10.17;73.45;98663.88;6199906;28;20193;-73
2021/10/19 08:49:38;;;;;;;3.97;3.10;;;;;;;10.37;73.32;98654.72;6198368;28;20199;-74
2021/10/19 08:52:40;;;;;;;3.10;2.80;;;;;;;10.49;73.25;98643.34;6199685;28;20197;-73
2021/10/19 08:55:42;;;;;;;5.53;2.97;;;;;;;10.52;73.00;98644.94;6197834;28;20348;-73
2021/10/19 08:58:44;;;;;;;4.67;3.20;;;;;;;10.55;72.44;98652.69;6198665;28;20209;-73
2021/10/19 09:01:46;;;;;;;3.40;3.10;;;;;;;10.62;72.31;98646.91;6198687;28;20204;-73
2021/10/19 09:04:54;;;;;;;4.13;3.00;;;;;;;10.82;72.15;98653.53;6197997;28;20206;-73
2021/10/19 09:08:00;;;;;;;3.37;2.70;;;;;;;10.99;71.71;98647.97;6214257;28;20224;-73
2021/10/19 09:11:13;;;;;;;4.00;3.30;;;;;;;11.17;70.82;98635.34;6197728;28;20205;-73
2021/10/19 09:14:19;;;;;;;3.67;2.83;;;;;;;11.28;70.51;98642.53;6197644;28;20670;-73
2021/10/19 09:17:21;;;;;;;4.77;2.77;;;;;;;11.45;70.14;98655.44;6197270;28;20236;-73
2021/10/19 09:20:23;;;;;;;3.03;2.40;;;;;;;11.61;70.10;98656.06;6197447;28;20332;-73
2021/10/19 09:23:28;;;;;;;3.83;2.93;;;;;;;11.74;69.36;98646.34;6198735;28;20272;-73
2021/10/19 09:26:31;;;;;;;2.87;2.40;;;;;;;11.81;68.81;98658.22;6198459;28;20206;-73
2021/10/19 09:29:41;;;;;;;6.20;2.67;;;;;;;11.89;67.64;98662.97;6210155;28;20596;-73
2021/10/19 09:32:51;;;;;;;3.70;3.30;;;;;;;11.92;66.96;98657.47;6247274;28;20189;-73
2021/10/19 09:35:58;;;;;;;4.03;3.30;;;;;;;12.05;66.26;98654.81;6247316;28;20396;-73
2021/10/19 09:39:00;;;;;;;3.23;2.93;;;;;;;12.39;64.92;98659.38;6247099;28;20218;-74
2021/10/19 09:42:06;;;;;;;3.63;2.63;;;;;;;12.74;64.94;98658.63;6246835;28;20201;-73
2021/10/19 09:45:08;;;;;;;4.03;2.60;;;;;;;12.93;64.41;98662.47;6245813;28;20193;-73
2021/10/19 09:48:18;;;;;;;3.90;3.30;;;;;;;13.07;62.89;98655.31;6228987;28;20601;-73
2021/10/19 09:51:20;;;;;;;4.17;3.10;;;;;;;13.41;62.17;98661.56;6246950;28;20186;-73
2021/10/19 09:54:27;;;;;;;6.40;3.90;;;;;;;13.78;61.16;98652.47;6229136;28;20210;-73
2021/10/19 09:57:29;;;;;;;6.30;5.37;;;;;;;14.27;58.76;98648.63;6245332;28;20311;-73
2021/10/19 10:00:37;;;;;;;8.97;5.50;;;;;;;14.34;58.66;98652.47;6246630;28;20318;-73
2021/10/19 10:03:45;;;;;;;7.50;5.40;;;;;;;14.25;58.43;98639.94;6246466;28;20245;-73
2021/10/19 10:06:48;;;;;;;8.20;6.23;;;;;;;14.14;58.49;98643.44;6246684;28;20329;-73
2021/10/19 10:09:50;;;;;;;8.80;6.27;;;;;;;14.31;58.18;98644.75;6246496;28;20237;-73
2021/10/19 10:13:04;;;;;;;8.93;5.97;;;;;;;14.47;57.75;98639.09;6245863;28;20191;-73
2021/10/19 10:16:10;;;;;;;7.57;5.53;;;;;;;14.39;58.76;98635.22;6228624;28;20207;-73
2021/10/19 10:19:18;;;;;;;8.73;5.43;;;;;;;14.49;58.94;98637.97;6246176;28;20573;-73
2021/10/19 10:22:24;;;;;;;8.73;6.93;;;;;;;14.61;58.55;98633.47;6246265;28;20551;-73
2021/10/19 10:25:36;;;;;;;9.60;6.83;;;;;;;14.72;57.54;98636.09;6244888;28;20327;-73
2021/10/19 10:28:38;;;;;;;9.67;6.00;;;;;;;14.91;57.69;98638.94;6245915;28;20212;-73
2021/10/19 10:31:51;;;;;;;10.30;7.03;;;;;;;14.91;58.10;98638.94;6245678;28;20256;-74
2021/10/19 10:35:11;;;;;;;8.43;7.07;;;;;;;14.89;57.11;98642.69;6228554;28;20192;-73
2021/10/19 10:38:14;;;;;;;11.60;7.33;;;;;;;14.67;56.77;98636.47;6245679;28;20565;-73
2021/10/19 10:41:16;;;;;;;14.40;8.30;;;;;;;14.89;56.22;98634.72;6245629;28;20200;-73
2021/10/19 10:44:22;;;;;;;13.17;7.10;;;;;;;15.04;55.54;98631.66;6228107;28;20257;-73
2021/10/19 10:47:26;;;;;;;10.07;5.83;;;;;;;15.27;55.09;98621.72;6245621;28;20196;-73
2021/10/19 10:50:30;;;;;;;12.23;6.63;;;;;;;15.61;55.11;98610.91;6245542;28;20188;-73
2021/10/19 10:53:44;;;;;;;10.73;7.07;;;;;;;15.82;54.96;98603.72;6245461;28;20619;-73
2021/10/19 10:56:50;;;;;;;7.60;5.67;;;;;;;16.10;53.43;98605.66;6245663;28;20214;-73
2021/10/19 10:59:54;;;;;;;8.60;6.37;;;;;;;16.33;52.68;98597.47;6244614;28;20192;-74
2021/10/19 11:03:14;;;;;;;7.97;5.33;;;;;;;16.60;53.11;98590.50;6236041;28;20197;-74
2021/10/19 11:06:22;;;;;;;10.93;6.67;;;;;;;16.80;52.76;98594.03;6222290;28;20707;-73
2021/10/19 11:09:29;;;;;;;8.63;5.70;;;;;;;17.03;52.38;98583.09;6227568;28;20208;-74
2021/10/19 11:12:34;;;;;;;8.97;5.20;;;;;;;17.24;52.74;98581.97;6245255;28;20505;-74
2021/10/19 11:15:36;;;;;;;8.23;4.97;;;;;;;17.50;51.05;98576.84;6245523;28;20203;-74
2021/10/19 11:18:38;;;;;;;8.67;5.63;;;;;;;17.72;50.37;98578.34;6244159;28;20215;-73
2021/10/19 11:21:41;;;;;;;10.20;6.73;;;;;;;17.93;49.87;98581.63;6245205;28;20608;-74
2021/10/19 11:24:43;;;;;;;7.60;5.93;;;;;;;18.03;50.77;98570.91;6249154;28;20196;-74
2021/10/19 11:27:45;;;;;;;8.77;4.93;;;;;;;17.93;52.65;98578.97;6232585;28;20219;-74
2021/10/19 11:30:48;;;;;;;8.27;5.80;;;;;;;17.79;53.08;98576.75;6224433;28;20782;-74
2021/10/19 11:33:50;;;;;;;9.83;7.50;;;;;;;17.00;51.18;98580.69;6242965;28;20671;-74
2021/10/19 11:36:53;;;;;;;9.67;6.90;;;;;;;17.01;50.83;98571.72;6250019;28;20557;-74
2021/10/19 11:40:10;;;;;;;7.77;6.93;;;;;;;16.92;51.14;98581.41;6249817;28;20215;-74
2021/10/19 11:43:19;;;;;;;10.17;7.07;;;;;;;17.05;49.19;98575.81;6250134;28;20189;-74
2021/10/19 11:46:25;;;;;;;9.80;7.17;;;;;;;16.45;50.67;98573.22;6232161;28;20197;-74
2021/10/19 11:49:33;;;;;;;8.77;6.83;;;;;;;16.93;50.47;98567.09;6249805;28;20274;-74
2021/10/19 11:52:35;;;;;;;6.67;5.63;;;;;;;17.40;50.23;98576.00;6248375;28;20214;-74
2021/10/19 11:55:37;;;;;;;8.20;5.43;;;;;;;17.61;49.25;98565.97;6232088;28;20595;-74
2021/10/19 11:59:00;;;;;;;7.33;5.23;;;;;;;17.57;47.65;98564.56;6249367;28;20211;-74
2021/10/19 12:02:06;;;;;;;6.73;5.53;;;;;;;17.74;49.61;98557.69;6224861;28;20193;-74
2021/10/19 12:05:09;;;;;;;7.10;5.57;;;;;;;17.69;48.15;98554.59;6246676;28;20199;-74
2021/10/19 12:08:11;;;;;;;5.30;4.80;;;;;;;17.76;49.41;98546.88;6249102;28;20192;-74
2021/10/19 12:11:13;;;;;;;8.97;5.30;;;;;;;17.73;49.95;98545.31;6231563;28;20277;-74
2021/10/19 12:14:15;;;;;;;7.10;5.03;;;;;;;17.62;48.67;98546.34;6231661;28;20196;-74
2021/10/19 12:17:17;;;;;;;7.87;5.07;;;;;;;17.52;48.15;98550.00;6247925;28;20296;-74
2021/10/19 12:20:39;;;;;;;6.80;5.70;;;;;;;17.47;48.40;98549.63;6249013;28;20675;-74
2021/10/19 12:24:14;;;;;;;6.20;5.60;;;;;;;17.48;47.46;98546.78;6248836;28;20552;-74
2021/10/19 12:27:18;;;;;;;7.40;5.40;;;;;;;17.29;47.47;98547.66;6172655;28;20601;-74
2021/10/19 12:30:21;;;;;;;8.30;5.83;;;;;;;17.30;47.83;98536.00;6166299;28;20604;-74
2021/10/19 12:33:25;;;;;;;6.23;4.57;;;;;;;17.76;48.75;98530.84;6172676;28;20198;-74
2021/10/19 12:36:35;;;;;;;4.90;3.30;;;;;;;18.40;48.01;98523.56;6182017;28;20218;-74
2021/10/19 12:39:43;;;;;;;6.50;4.57;;;;;;;18.88;46.87;98522.34;6175921;28;20218;-74
2021/10/19 12:42:47;;;;;;;6.33;4.40;;;;;;;19.26;45.47;98515.81;6172703;28;20297;-74
2021/10/19 12:45:49;;;;;;;4.97;3.20;;;;;;;19.28;45.23;98511.09;6172584;28;20281;-74
2021/10/19 12:48:54;;;;;;;5.33;3.13;;;;;;;19.32;45.14;98511.63;6172428;28;20280;-74
2021/10/19 12:51:56;;;;;;;5.00;3.03;;;;;;;19.26;45.32;98514.97;6172391;28;20567;-74
2021/10/19 12:54:58;;;;;;;4.47;3.57;;;;;;;19.37;45.56;98512.00;6172281;28;20194;-74
2021/10/19 12:58:00;;;;;;;6.07;4.00;;;;;;;19.40;43.72;98517.03;6172154;28;20213;-74
2021/10/19 13:01:04;;;;;;;4.73;3.57;;;;;;;19.43;44.66;98522.94;6164284;28;20203;-74
2021/10/19 13:04:07;;;;;;;4.07;2.47;;;;;;;19.49;46.26;98521.47;6229839;28;20694;-74
2021/10/19 13:07:09;;;;;;;4.37;3.00;;;;;;;19.55;46.30;98514.66;6246418;28;20210;-74
2021/10/19 13:10:12;;;;;;;4.53;3.20;;;;;;;19.70;45.56;98516.56;6229989;28;20188;-74
2021/10/19 13:13:14;;;;;;;4.13;3.10;;;;;;;20.09;43.86;98521.41;6246681;28;20645;-74
2021/10/19 13:16:16;;;;;;;5.23;3.20;;;;;;;20.72;42.70;98513.69;6247749;28;20192;-74
2021/10/19 13:19:18;;;;;;;4.77;3.10;;;;;;;21.25;41.05;98518.59;6247469;28;20254;-74
2021/10/19 13:22:20;;;;;;;3.97;2.97;;;;;;;21.48;41.44;98523.22;6229890;28;20426;-74
2021/10/19 13:25:22;;;;;;;3.70;2.93;;;;;;;21.46;41.55;98512.66;6247624;28;20625;-74
2021/10/19 13:28:24;;;;;;;4.00;2.77;;;;;;;21.65;42.16;98514.97;6247292;28;20695;-74
2021/10/19 13:31:32;;;;;;;4.07;3.10;;;;;;;21.35;42.59;98511.19;6246209;28;20232;-74
2021/10/19 13:34:34;;;;;;;5.00;2.97;;;;;;;20.13;45.43;98512.91;6229517;28;20218;-74
2021/10/19 13:37:36;;;;;;;3.57;2.80;;;;;;;19.13;48.31;98507.34;6248024;28;20194;-74
2021/10/19 13:40:39;;;;;;;6.37;3.60;;;;;;;18.66;49.36;98510.31;6247173;28;20206;-74
2021/10/19 13:43:42;;;;;;;3.90;2.97;;;;;;;18.34;50.49;98502.78;6246826;28;20223;-74
2021/10/19 13:46:44;;;;;;;3.30;2.93;;;;;;;17.99;50.89;98502.72;6246125;28;20184;-74
2021/10/19 13:49:46;;;;;;;3.27;2.93;;;;;;;17.69;52.75;98502.03;6247007;28;20188;-74
2021/10/19 13:52:49;;;;;;;5.10;2.80;;;;;;;17.54;53.12;98490.16;6246975;28;20326;-74
2021/10/19 13:55:51;;;;;;;4.43;3.40;;;;;;;17.52;52.88;98485.94;6229482;28;20721;-74
2021/10/19 13:58:53;;;;;;;3.83;2.80;;;;;;;17.28;53.66;98497.94;6228926;28;20216;-74
2021/10/19 14:01:59;;;;;;;4.77;2.83;;;;;;;17.08;54.86;98482.16;6246861;28;20196;-74
2021/10/19 14:05:03;;;;;;;5.17;3.30;;;;;;;16.95;54.11;98479.81;6228874;28;20277;-74
2021/10/19 14:08:11;;;;;;;5.70;2.83;;;;;;;16.72;55.29;98481.94;6246348;28;20192;-74
2021/10/19 14:11:13;;;;;;;4.40;2.77;;;;;;;16.52;56.89;98477.56;6246513;28;20250;-74
2021/10/19 14:14:15;;;;;;;2.97;2.33;;;;;;;16.38;57.82;98483.31;6228562;28;20249;-74
2021/10/19 14:17:22;;;;;;;4.50;2.63;;;;;;;16.21;58.38;98488.34;6228726;28;20188;-74
2021/10/19 14:20:24;;;;;;;4.17;2.70;;;;;;;16.10;59.02;98493.81;6245998;28;20216;-74
2021/10/19 14:23:26;;;;;;;4.13;2.77;;;;;;;16.02;59.11;98487.50;6246093;28;20249;-74
2021/10/19 14:26:29;;;;;;;2.97;2.57;;;;;;;15.81;59.87;98482.25;6246041;28;20200;-74
2021/10/19 14:29:31;;;;;;;2.70;2.50;;;;;;;15.63;60.60;98481.22;6245646;28;20228;-74